createdAt,value
2019-05-06T00:01:33.996Z,92.50
2019-05-06T00:04:04.963Z,92.30
2019-05-06T00:06:34.592Z,92.90
2019-05-06T00:09:05.120Z,93.50
2019-05-06T00:11:34.606Z,93.20
2019-05-06T00:14:04.240Z,92.50
2019-05-06T00:16:34.641Z,92.30
2019-05-06T00:19:05.050Z,92.30
2019-05-06T00:21:35.586Z,92.50
2019-05-06T00:24:04.840Z,92.50
2019-05-06T00:26:37.984Z,92.60
2019-05-06T00:29:11.321Z,92.60
2019-05-06T00:31:40.183Z,92.50
2019-05-06T00:34:08.999Z,92.40
2019-05-06T00:36:37.854Z,92.40
2019-05-06T00:39:09.397Z,92.40
2019-05-06T00:41:38.208Z,92.40
2019-05-06T00:44:10.428Z,92.40
2019-05-06T00:46:43.781Z,92.60
2019-05-06T00:49:15.890Z,92.50
2019-05-06T00:51:48.663Z,92.80
2019-05-06T00:54:24.848Z,92.60
2019-05-06T00:56:57.169Z,93.00
2019-05-06T00:59:30.847Z,92.50
2019-05-06T01:02:04.474Z,92.30
2019-05-06T01:04:36.051Z,92.00
2019-05-06T01:07:07.868Z,91.90
2019-05-06T01:09:39.867Z,91.90
2019-05-06T01:12:14.222Z,92.40
2019-05-06T01:14:47.971Z,92.10
2019-05-06T01:17:20.495Z,92.60
2019-05-06T01:19:54.092Z,92.70
2019-05-06T01:22:26.353Z,92.40
2019-05-06T01:24:56.662Z,93.10
2019-05-06T01:27:29.094Z,92.80
2019-05-06T01:30:04.274Z,92.30
2019-05-06T01:32:36.612Z,92.40
2019-05-06T01:35:10.104Z,92.50
2019-05-06T01:37:44.117Z,92.70
2019-05-06T01:40:36.604Z,92.30
2019-05-06T01:43:15.635Z,92.40
2019-05-06T01:45:47.644Z,92.00
2019-05-06T01:48:21.376Z,91.90
2019-05-06T01:50:53.994Z,92.20
2019-05-06T01:53:26.194Z,92.00
2019-05-06T01:55:57.404Z,92.00
2019-05-06T01:58:29.146Z,92.00
2019-05-06T02:01:03.939Z,92.00
2019-05-06T02:03:35.342Z,92.10
2019-05-06T02:06:07.483Z,91.90
2019-05-06T02:08:38.377Z,92.00
2019-05-06T02:11:10.512Z,92.10
2019-05-06T02:13:44.311Z,92.30
2019-05-06T02:16:16.446Z,92.10
2019-05-06T02:18:48.754Z,92.20
2019-05-06T02:21:33.685Z,92.30
2019-05-06T02:24:07.206Z,92.50
2019-05-06T02:26:39.392Z,92.40
2019-05-06T02:29:15.216Z,92.20
2019-05-06T02:32:15.978Z,92.20
2019-05-06T02:34:38.180Z,92.00
2019-05-06T02:37:27.674Z,92.00
2019-05-06T02:39:59.953Z,92.00
2019-05-06T02:42:33.757Z,92.00
2019-05-06T02:45:06.288Z,92.00
2019-05-06T02:47:45.563Z,92.10
2019-05-06T02:50:27.985Z,92.30
2019-05-06T02:53:02.510Z,92.10
2019-05-06T02:55:36.097Z,92.20
2019-05-06T02:58:06.531Z,92.30
2019-05-06T03:00:39.015Z,92.50
2019-05-06T03:03:13.642Z,92.50
2019-05-06T03:05:44.547Z,92.30
2019-05-06T03:08:16.729Z,92.20
2019-05-06T03:10:48.219Z,92.10
2019-05-06T03:13:23.325Z,92.30
2019-05-06T03:15:54.396Z,92.30
2019-05-06T03:18:26.380Z,92.50
2019-05-06T03:20:59.564Z,92.30
2019-05-06T03:23:35.529Z,92.10
2019-05-06T03:26:06.967Z,92.30
2019-05-06T03:28:39.238Z,92.40
2019-05-06T03:31:15.292Z,92.40
2019-05-06T03:33:59.756Z,92.40
2019-05-06T03:36:25.518Z,92.60
2019-05-06T03:38:53.344Z,92.50
2019-05-06T03:41:26.725Z,92.60
2019-05-06T03:44:03.295Z,92.60
2019-05-06T03:46:53.843Z,92.50
2019-05-06T03:49:26.707Z,92.40
2019-05-06T03:52:02.677Z,92.50
2019-05-06T03:54:34.281Z,92.30
2019-05-06T03:57:05.727Z,92.30
2019-05-06T03:59:38.815Z,92.50
2019-05-06T04:02:13.252Z,92.50
2019-05-06T04:04:44.648Z,92.60
2019-05-06T04:07:16.990Z,92.20
2019-05-06T04:09:53.177Z,92.20
2019-05-06T04:12:23.375Z,92.30
2019-05-06T04:14:53.997Z,92.40
2019-05-06T04:17:25.129Z,92.40
2019-05-06T04:19:59.096Z,92.30
2019-05-06T04:22:33.465Z,92.30
2019-05-06T04:25:06.740Z,92.20
2019-05-06T04:27:42.779Z,92.20
2019-05-06T04:30:13.533Z,92.50
2019-05-06T04:32:43.414Z,91.90
2019-05-06T04:35:13.514Z,91.90
2019-05-06T04:37:43.716Z,92.00
2019-05-06T04:40:14.853Z,91.90
2019-05-06T04:42:44.627Z,91.60
2019-05-06T04:45:17.291Z,92.00
2019-05-06T04:47:44.683Z,91.60
2019-05-06T04:50:13.849Z,91.50
2019-05-06T04:52:43.449Z,91.70
2019-05-06T04:55:13.929Z,91.50
2019-05-06T04:57:44.084Z,91.90
2019-05-06T05:00:14.160Z,91.40
2019-05-06T05:02:46.378Z,91.20
2019-05-06T05:05:14.163Z,91.00
2019-05-06T05:07:43.150Z,91.00
2019-05-06T05:10:13.969Z,90.80
2019-05-06T05:12:53.023Z,90.40
2019-05-06T05:15:41.686Z,90.10
2019-05-06T05:18:31.862Z,90.30
2019-05-06T05:21:02.436Z,90.00
2019-05-06T05:23:31.932Z,90.10
2019-05-06T05:26:02.906Z,90.20
2019-05-06T05:28:32.079Z,90.30
2019-05-06T05:31:03.026Z,90.30
2019-05-06T05:33:32.729Z,90.20
2019-05-06T05:36:02.181Z,90.10
2019-05-06T05:38:32.040Z,90.30
2019-05-06T05:41:03.054Z,90.10
2019-05-06T05:43:33.713Z,90.00
2019-05-06T05:46:03.028Z,89.90
2019-05-06T05:48:51.966Z,89.70
2019-05-06T05:51:22.122Z,89.20
2019-05-06T05:53:52.322Z,89.20
2019-05-06T05:56:24.023Z,88.60
2019-05-06T05:58:53.499Z,88.50
2019-05-06T06:01:24.600Z,88.40
2019-05-06T06:03:53.424Z,88.40
2019-05-06T06:06:22.354Z,88.00
2019-05-06T06:08:52.337Z,87.70
2019-05-06T06:11:32.871Z,86.20
2019-05-06T06:14:03.556Z,86.20
2019-05-06T06:16:39.715Z,85.70
2019-05-06T06:19:28.411Z,85.30
2019-05-06T06:21:59.246Z,85.00
2019-05-06T06:24:35.491Z,84.20
2019-05-06T06:27:04.480Z,84.70
2019-05-06T06:29:33.318Z,84.80
2019-05-06T06:32:09.871Z,85.20
2019-05-06T06:34:52.128Z,85.50
2019-05-06T06:37:33.174Z,86.00
2019-05-06T06:40:03.563Z,85.80
2019-05-06T06:42:33.556Z,85.80
2019-05-06T06:45:03.616Z,86.30
2019-05-06T06:47:32.924Z,85.70
2019-05-06T06:50:02.861Z,86.00
2019-05-06T06:52:32.690Z,85.30
2019-05-06T06:55:02.375Z,85.30
2019-05-06T06:57:34.435Z,85.40
2019-05-06T07:00:22.255Z,85.60
2019-05-06T07:02:55.810Z,85.30
2019-05-06T07:05:33.213Z,85.20
2019-05-06T07:08:02.351Z,85.10
2019-05-06T07:10:43.254Z,83.80
2019-05-06T07:13:14.314Z,83.90
2019-05-06T07:15:43.467Z,83.50
2019-05-06T07:18:13.434Z,83.10
2019-05-06T07:20:44.553Z,82.30
2019-05-06T07:26:04.152Z,79.90
2019-05-06T07:28:33.026Z,77.70
2019-05-06T07:31:17.367Z,75.90
2019-05-06T07:33:33.570Z,74.30
2019-05-06T07:36:02.811Z,74.90
2019-05-06T07:38:32.520Z,71.50
2019-05-06T07:41:18.441Z,71.50
2019-05-06T07:43:48.897Z,68.80
2019-05-06T07:46:25.277Z,67.70
2019-05-06T07:48:54.131Z,64.70
2019-05-06T07:51:23.919Z,66.60
2019-05-06T07:53:53.024Z,65.20
2019-05-06T07:56:22.425Z,64.20
2019-05-06T07:58:53.215Z,63.30
2019-05-06T08:01:25.943Z,61.40
2019-05-06T08:03:53.296Z,62.70
2019-05-06T08:06:22.793Z,62.40
2019-05-06T08:08:53.696Z,62.10
2019-05-06T08:11:25.671Z,61.30
2019-05-06T08:13:52.936Z,61.40
2019-05-06T08:16:22.574Z,61.00
2019-05-06T08:18:52.651Z,58.90
2019-05-06T08:21:23.643Z,58.30
2019-05-06T08:23:53.575Z,58.40
2019-05-06T08:26:22.657Z,59.30
2019-05-06T08:28:52.590Z,60.30
2019-05-06T08:31:23.031Z,60.70
2019-05-06T08:33:52.548Z,60.80
2019-05-06T08:36:26.135Z,61.40
2019-05-06T08:39:02.951Z,61.00
2019-05-06T08:41:33.147Z,61.80
2019-05-06T08:44:02.809Z,62.00
2019-05-06T08:46:32.666Z,61.70
2019-05-06T08:49:03.091Z,61.50
2019-05-06T08:51:33.925Z,62.60
2019-05-06T08:54:04.350Z,63.20
2019-05-06T08:56:33.170Z,61.70
2019-05-06T08:59:03.151Z,59.30
2019-05-06T09:01:36.830Z,59.20
2019-05-06T09:04:12.478Z,58.90
2019-05-06T09:06:37.928Z,57.40
2019-05-06T09:09:08.371Z,57.40
2019-05-06T09:11:37.185Z,57.10
2019-05-06T09:14:09.457Z,57.10
2019-05-06T09:16:36.586Z,57.10
2019-05-06T09:19:05.419Z,56.00
2019-05-06T09:21:34.301Z,55.40
2019-05-06T09:24:03.129Z,56.00
2019-05-06T09:26:36.335Z,56.10
2019-05-06T09:29:15.613Z,57.60
2019-05-06T09:31:52.287Z,55.10
2019-05-06T09:34:23.360Z,53.50
2019-05-06T09:37:13.457Z,53.90
2019-05-06T09:39:44.648Z,54.10
2019-05-06T09:42:14.047Z,55.10
2019-05-06T09:44:44.672Z,55.10
2019-05-06T09:47:15.301Z,52.20
2019-05-06T09:49:44.212Z,51.10
2019-05-06T09:52:13.181Z,46.90
2019-05-06T09:55:02.996Z,47.60
2019-05-06T09:57:32.693Z,49.60
2019-05-06T10:00:04.576Z,48.60
2019-05-06T10:02:32.651Z,49.90
2019-05-06T10:05:03.522Z,51.30
2019-05-06T10:07:33.932Z,49.20
2019-05-06T10:10:02.698Z,50.00
2019-05-06T10:12:32.904Z,45.50
2019-05-06T10:15:03.142Z,45.30
2019-05-06T10:17:32.401Z,45.10
2019-05-06T10:20:02.853Z,43.60
2019-05-06T10:22:32.450Z,44.70
2019-05-06T10:25:03.657Z,43.90
2019-05-06T10:27:32.152Z,40.00
2019-05-06T10:30:14.739Z,43.50
2019-05-06T10:32:47.819Z,43.60
2019-05-06T10:35:16.992Z,43.20
2019-05-06T10:38:06.400Z,43.70
2019-05-06T10:40:59.661Z,42.30
2019-05-06T10:43:53.777Z,42.90
2019-05-06T10:46:22.705Z,42.90
2019-05-06T10:48:53.058Z,39.60
2019-05-06T10:51:32.843Z,42.50
2019-05-06T10:54:03.180Z,43.20
2019-05-06T10:56:49.079Z,43.50
2019-05-06T10:59:06.044Z,40.80
2019-05-06T11:01:36.447Z,41.90
2019-05-06T11:04:05.360Z,40.30
2019-05-06T11:06:34.229Z,40.70
2019-05-06T11:09:03.327Z,40.70
2019-05-06T11:11:38.114Z,40.10
2019-05-06T11:14:03.249Z,40.50
2019-05-06T11:16:33.269Z,40.50
2019-05-06T11:19:05.068Z,42.50
2019-05-06T11:21:32.997Z,43.00
2019-05-06T11:24:05.921Z,42.80
2019-05-06T11:26:32.315Z,44.40
2019-05-06T11:29:08.428Z,43.40
2019-05-06T11:31:47.768Z,42.20
2019-05-06T11:34:18.163Z,40.80
2019-05-06T11:36:54.651Z,41.60
2019-05-06T11:39:23.624Z,41.00
2019-05-06T11:42:14.435Z,43.60
2019-05-06T11:44:23.855Z,41.70
2019-05-06T11:46:53.112Z,43.10
2019-05-06T11:49:23.328Z,41.20
2019-05-06T11:51:52.624Z,42.20
2019-05-06T11:54:24.454Z,43.50
2019-05-06T11:56:57.987Z,43.70
2019-05-06T11:59:24.598Z,46.30
2019-05-06T12:02:02.618Z,43.50
2019-05-06T12:04:32.933Z,44.70
2019-05-06T12:07:10.362Z,45.00
2019-05-06T12:09:33.050Z,42.90
2019-05-06T12:12:03.243Z,41.80
2019-05-06T12:14:32.583Z,42.70
2019-05-06T12:17:02.228Z,42.60
2019-05-06T12:19:32.400Z,43.80
2019-05-06T12:22:01.634Z,40.30
2019-05-06T12:24:30.497Z,40.40
2019-05-06T12:26:59.326Z,41.00
2019-05-06T12:29:28.172Z,42.20
2019-05-06T12:31:58.561Z,43.40
2019-05-06T12:34:27.435Z,40.20
2019-05-06T12:36:57.866Z,39.30
2019-05-06T12:39:27.486Z,38.90
2019-05-06T12:42:06.816Z,40.00
2019-05-06T12:44:37.222Z,42.20
2019-05-06T12:47:07.648Z,42.60
2019-05-06T12:49:36.485Z,43.00
2019-05-06T12:52:05.343Z,43.10
2019-05-06T12:54:34.196Z,42.80
2019-05-06T12:57:03.501Z,42.00
2019-05-06T12:59:32.481Z,39.70
2019-05-06T13:02:02.649Z,39.90
2019-05-06T13:04:50.324Z,38.70
2019-05-06T13:07:02.968Z,40.00
2019-05-06T13:09:33.144Z,39.80
2019-05-06T13:12:03.917Z,39.80
2019-05-06T13:14:33.234Z,39.40
2019-05-06T13:17:02.861Z,41.80
2019-05-06T13:19:32.375Z,41.60
2019-05-06T13:22:03.706Z,41.90
2019-05-06T13:24:32.622Z,40.60
2019-05-06T13:27:02.593Z,41.20
2019-05-06T13:29:35.545Z,42.70
2019-05-06T13:32:03.919Z,44.40
2019-05-06T13:34:33.388Z,43.50
2019-05-06T13:37:02.794Z,45.10
2019-05-06T13:39:32.889Z,43.20
2019-05-06T13:42:02.086Z,44.00
2019-05-06T13:44:32.075Z,44.80
2019-05-06T13:47:02.926Z,45.80
2019-05-06T13:49:39.268Z,44.40
2019-05-06T13:52:09.118Z,44.00
2019-05-06T13:54:37.934Z,40.60
2019-05-06T13:57:06.792Z,41.60
2019-05-06T13:59:36.968Z,41.00
2019-05-06T14:02:26.006Z,40.10
2019-05-06T14:04:54.816Z,41.00
2019-05-06T14:07:24.482Z,43.30
2019-05-06T14:09:53.524Z,42.40
2019-05-06T14:12:22.352Z,42.50
2019-05-06T14:14:52.740Z,40.80
2019-05-06T14:17:22.351Z,42.10
2019-05-06T14:19:53.359Z,43.70
2019-05-06T14:22:23.233Z,43.10
2019-05-06T14:24:54.442Z,43.30
2019-05-06T14:27:23.262Z,44.30
2019-05-06T14:30:04.675Z,43.20
2019-05-06T14:32:33.241Z,42.60
2019-05-06T14:35:02.093Z,42.90
2019-05-06T14:37:32.958Z,43.80
2019-05-06T14:40:03.204Z,42.20
2019-05-06T14:42:32.944Z,43.30
2019-05-06T14:45:02.183Z,44.30
2019-05-06T14:47:32.833Z,42.40
2019-05-06T14:50:03.910Z,43.90
2019-05-06T14:52:33.347Z,44.50
2019-05-06T14:55:04.240Z,42.50
2019-05-06T14:57:33.054Z,42.80
2019-05-06T15:00:04.153Z,44.00
2019-05-06T15:02:33.678Z,43.70
2019-05-06T15:05:03.217Z,44.50
2019-05-06T15:07:32.884Z,45.70
2019-05-06T15:10:16.450Z,45.00
2019-05-06T15:12:33.396Z,43.70
2019-05-06T15:15:03.781Z,44.70
2019-05-06T15:17:33.915Z,46.30
2019-05-06T15:20:04.732Z,43.80
2019-05-06T15:22:33.599Z,43.90
2019-05-06T15:25:02.546Z,44.90
2019-05-06T15:27:33.438Z,43.90
2019-05-06T15:30:03.511Z,44.10
2019-05-06T15:32:36.658Z,44.50
2019-05-06T15:35:12.850Z,43.80
2019-05-06T15:37:43.582Z,43.50
2019-05-06T15:40:13.041Z,44.80
2019-05-06T15:42:42.512Z,44.30
2019-05-06T15:45:12.585Z,45.10
2019-05-06T15:47:42.562Z,45.20
2019-05-06T15:50:12.901Z,44.20
2019-05-06T15:52:43.462Z,44.30
2019-05-06T15:55:13.397Z,44.60
2019-05-06T15:57:43.543Z,44.60
2019-05-06T16:00:14.983Z,44.60
2019-05-06T16:02:43.857Z,44.80
2019-05-06T16:05:19.427Z,45.30
2019-05-06T16:07:43.443Z,45.70
2019-05-06T16:10:13.368Z,44.90
2019-05-06T16:12:44.044Z,45.20
2019-05-06T16:15:13.257Z,45.50
2019-05-06T16:17:42.767Z,45.00
2019-05-06T16:20:12.994Z,45.60
2019-05-06T16:22:44.531Z,46.50
2019-05-06T16:25:16.343Z,46.50
2019-05-06T16:27:46.719Z,46.00
2019-05-06T16:30:17.646Z,46.80
2019-05-06T16:32:46.482Z,46.60
2019-05-06T16:35:15.743Z,45.80
2019-05-06T16:37:44.575Z,46.10
2019-05-06T16:40:14.337Z,45.80
2019-05-06T16:42:45.941Z,46.90
2019-05-06T16:45:13.687Z,47.40
2019-05-06T16:47:44.690Z,46.10
2019-05-06T16:50:17.978Z,46.50
2019-05-06T16:52:46.849Z,47.10
2019-05-06T16:55:24.223Z,47.10
2019-05-06T16:58:02.439Z,47.20
2019-05-06T17:00:32.778Z,47.90
2019-05-06T17:03:09.188Z,47.90
2019-05-06T17:05:39.587Z,47.10
2019-05-06T17:08:08.445Z,48.00
2019-05-06T17:10:40.146Z,47.30
2019-05-06T17:13:07.784Z,47.00
2019-05-06T17:15:36.608Z,48.10
2019-05-06T17:18:05.513Z,48.70
2019-05-06T17:20:34.332Z,48.00
2019-05-06T17:23:03.159Z,48.90
2019-05-06T17:25:33.445Z,49.50
2019-05-06T17:28:04.192Z,49.30
2019-05-06T17:30:34.601Z,50.20
2019-05-06T17:33:22.437Z,50.70
2019-05-06T17:35:52.209Z,51.60
2019-05-06T17:38:22.717Z,51.30
2019-05-06T17:40:52.401Z,51.10
2019-05-06T17:43:22.572Z,51.90
2019-05-06T17:46:01.806Z,51.80
2019-05-06T17:48:28.905Z,52.50
2019-05-06T17:51:13.662Z,53.10
2019-05-06T17:53:46.279Z,53.00
2019-05-06T17:56:15.145Z,53.30
2019-05-06T17:58:43.965Z,53.80
2019-05-06T18:01:14.526Z,55.70
2019-05-06T18:03:43.351Z,55.50
2019-05-06T18:06:14.264Z,55.40
2019-05-06T18:08:43.283Z,56.10
2019-05-06T18:11:13.052Z,56.10
2019-05-06T18:13:42.397Z,56.70
2019-05-06T18:16:13.238Z,57.30
2019-05-06T18:18:41.717Z,57.10
2019-05-06T18:21:12.352Z,57.90
2019-05-06T18:23:41.110Z,58.00
2019-05-06T18:26:09.936Z,58.00
2019-05-06T18:28:38.891Z,58.40
2019-05-06T18:31:07.736Z,58.30
2019-05-06T18:33:36.611Z,58.80
2019-05-06T18:36:06.419Z,58.60
2019-05-06T18:38:35.384Z,59.30
2019-05-06T18:41:04.206Z,59.70
2019-05-06T18:43:33.531Z,60.40
2019-05-06T18:46:03.086Z,60.80
2019-05-06T18:48:35.088Z,61.30
2019-05-06T18:51:03.110Z,61.60
2019-05-06T18:53:33.100Z,61.00
2019-05-06T18:56:03.121Z,61.30
2019-05-06T18:58:32.878Z,61.60
2019-05-06T19:01:03.807Z,61.60
2019-05-06T19:03:36.570Z,62.50
2019-05-06T19:06:05.410Z,62.50
2019-05-06T19:08:42.233Z,62.60
2019-05-06T19:11:12.911Z,61.60
2019-05-06T19:13:41.858Z,61.90
2019-05-06T19:16:12.680Z,63.00
2019-05-06T19:18:42.644Z,62.50
2019-05-06T19:21:13.414Z,62.50
2019-05-06T19:23:42.818Z,62.40
2019-05-06T19:26:12.379Z,61.60
2019-05-06T19:28:43.055Z,62.10
2019-05-06T19:31:12.392Z,62.90
2019-05-06T19:33:43.061Z,63.00
2019-05-06T19:36:12.626Z,63.50
2019-05-06T19:38:42.402Z,64.20
2019-05-06T19:41:12.861Z,64.10
2019-05-06T19:43:42.065Z,63.90
2019-05-06T19:46:12.114Z,64.60
2019-05-06T19:48:43.177Z,64.50
2019-05-06T19:51:11.718Z,63.90
2019-05-06T19:53:42.715Z,64.80
2019-05-06T19:56:12.339Z,64.80
2019-05-06T19:58:42.855Z,65.60
2019-05-06T20:01:12.034Z,65.70
2019-05-06T20:03:40.910Z,66.10
2019-05-06T20:06:26.381Z,69.90
2019-05-06T20:08:56.750Z,68.90
2019-05-06T20:11:27.128Z,71.00
2019-05-06T20:13:55.996Z,70.20
2019-05-06T20:16:24.823Z,70.30
2019-05-06T20:18:53.687Z,69.70
2019-05-06T20:21:23.088Z,68.80
2019-05-06T20:23:52.637Z,69.10
2019-05-06T20:26:22.070Z,69.80
2019-05-06T20:28:52.598Z,69.60
2019-05-06T20:31:22.642Z,68.80
2019-05-06T20:33:52.841Z,68.70
2019-05-06T20:36:22.583Z,68.60
2019-05-06T20:38:51.915Z,68.20
2019-05-06T20:41:22.177Z,67.30
2019-05-06T20:43:51.624Z,67.80
2019-05-06T20:46:22.002Z,67.40
2019-05-06T20:48:52.903Z,66.30
2019-05-06T20:51:21.972Z,66.90
2019-05-06T20:53:50.984Z,66.40
2019-05-06T20:56:21.855Z,66.00
2019-05-06T20:58:50.325Z,66.60
2019-05-06T21:01:19.180Z,67.30
2019-05-06T21:03:48.007Z,65.60
2019-05-06T21:06:16.853Z,65.20
2019-05-06T21:08:45.687Z,66.50
2019-05-06T21:11:25.669Z,66.40
2019-05-06T21:13:45.008Z,67.70
2019-05-06T21:16:13.869Z,67.40
2019-05-06T21:18:42.697Z,66.90
2019-05-06T21:21:13.430Z,67.20
2019-05-06T21:23:42.764Z,67.10
2019-05-06T21:26:13.623Z,67.20
2019-05-06T21:28:43.597Z,68.40
2019-05-06T21:31:12.984Z,68.90
2019-05-06T21:33:42.539Z,68.20
2019-05-06T21:36:12.416Z,67.80
2019-05-06T21:38:42.698Z,70.50
2019-05-06T21:41:12.401Z,69.70
2019-05-06T21:43:48.905Z,70.00
2019-05-06T21:46:12.960Z,70.70
2019-05-06T21:48:42.171Z,71.30
2019-05-06T21:51:12.683Z,72.20
2019-05-06T21:53:41.538Z,73.20
2019-05-06T21:56:10.417Z,73.90
2019-05-06T21:58:39.266Z,75.80
2019-05-06T22:01:08.981Z,74.90
2019-05-06T22:03:37.827Z,74.10
2019-05-06T22:06:06.655Z,75.60
2019-05-06T22:08:35.549Z,75.30
2019-05-06T22:11:04.367Z,76.30
2019-05-06T22:13:33.514Z,75.80
2019-05-06T22:16:04.767Z,75.40
2019-05-06T22:18:33.021Z,74.90
2019-05-06T22:21:09.245Z,75.20
2019-05-06T22:23:48.505Z,74.20
2019-05-06T22:26:17.408Z,73.70
2019-05-06T22:28:46.330Z,71.90
2019-05-06T22:31:15.857Z,71.70
2019-05-06T22:33:44.720Z,70.60
2019-05-06T22:36:13.545Z,72.10
2019-05-06T22:38:44.175Z,71.90
2019-05-06T22:41:12.951Z,68.10
2019-05-06T22:43:42.386Z,65.50
2019-05-06T22:46:12.439Z,65.50
2019-05-06T22:48:43.333Z,65.40
2019-05-06T22:51:12.476Z,61.30
2019-05-06T22:53:42.506Z,64.30
2019-05-06T22:56:13.194Z,60.60
2019-05-06T22:58:42.785Z,59.10
2019-05-06T23:01:13.615Z,63.50
2019-05-06T23:03:43.005Z,66.20
2019-05-06T23:06:12.606Z,65.60
2019-05-06T23:08:43.293Z,66.40
2019-05-06T23:11:13.332Z,68.80
2019-05-06T23:13:44.156Z,68.90
2019-05-06T23:16:13.437Z,66.70
2019-05-06T23:18:42.883Z,62.80
2019-05-06T23:21:14.642Z,57.00
2019-05-06T23:23:43.511Z,54.30
2019-05-06T23:26:22.550Z,53.80
2019-05-06T23:28:52.532Z,53.80
2019-05-06T23:31:21.969Z,54.40
2019-05-06T23:33:53.380Z,56.10
2019-05-06T23:36:22.953Z,56.50
2019-05-06T23:39:28.316Z,56.60
2019-05-06T23:42:33.551Z,57.30
2019-05-06T23:45:38.622Z,58.90
2019-05-06T23:48:43.580Z,59.50
2019-05-06T23:51:48.602Z,60.10
2019-05-06T23:54:53.812Z,60.00
2019-05-06T23:57:22.519Z,61.70
2019-05-06T23:59:54.482Z,59.80
